Terminal Aerodrome Forecast
Issued by NWS

Home | Current Version | Previous Version | Text Only | Print | Product List | Glossary On
Versions: 1 2 3 4 5 6 7 8 9 10 11 12
000
FTUS45 KVEF 011700 RRA
TAFHND
TAF
KHND 011741Z 0118/0218 07007KT P6SM SKC
     FM012200 16009KT P6SM SKC
     FM020100 19010KT P6SM SKC=

USA.gov is the U.S. government's official web portal to all federal, state and local government web resources and services.